createdAt,value
2023-01-08T12:30:40.520Z,73.25
2023-01-08T12:33:24.041Z,73.19
2023-01-08T12:35:52.587Z,73.12
2023-01-08T12:38:22.795Z,72.84
2023-01-08T12:40:52.563Z,72.70
2023-01-08T12:43:24.176Z,72.58
2023-01-08T12:45:52.936Z,72.43
2023-01-08T12:48:21.783Z,72.52
2023-01-08T12:50:59.917Z,72.13
2023-01-08T12:53:35.211Z,72.15
2023-01-08T12:56:13.511Z,71.90
2023-01-08T12:59:04.259Z,71.69
2023-01-08T13:01:34.941Z,71.09
2023-01-08T13:04:02.095Z,70.91
2023-01-08T13:06:28.917Z,70.43
2023-01-08T13:08:55.958Z,70.44
2023-01-08T13:11:25.954Z,70.12
2023-01-08T13:14:02.839Z,70.08
2023-01-08T13:16:32.795Z,69.98
2023-01-08T13:19:02.967Z,70.17
2023-01-08T13:21:33.342Z,70.36
2023-01-08T13:24:21.065Z,70.45
2023-01-08T13:26:47.984Z,70.40
2023-01-08T13:29:42.366Z,70.09
2023-01-08T13:32:26.205Z,70.73
2023-01-08T13:35:16.410Z,70.50
2023-01-08T13:37:44.144Z,70.63
2023-01-08T13:40:39.353Z,70.44
2023-01-08T13:43:11.432Z,70.71
2023-01-08T13:45:38.264Z,70.74
2023-01-08T13:48:05.130Z,70.99
2023-01-08T13:50:32.665Z,71.07
2023-01-08T13:53:03.224Z,71.15
2023-01-08T13:55:37.939Z,71.20
2023-01-08T13:58:09.953Z,71.29
2023-01-08T14:00:42.785Z,71.07
2023-01-08T14:03:22.833Z,70.82
2023-01-08T14:05:51.320Z,70.81
2023-01-08T14:08:23.255Z,70.89
2023-01-08T14:10:51.203Z,70.83
2023-01-08T14:13:18.500Z,70.85
2023-01-08T14:15:45.289Z,71.10
2023-01-08T14:18:13.625Z,71.13
2023-01-08T14:20:41.352Z,70.66
2023-01-08T14:23:13.319Z,70.91
2023-01-08T14:25:43.171Z,70.76
2023-01-08T14:28:14.556Z,70.26
2023-01-08T14:30:54.267Z,70.07
2023-01-08T14:33:24.036Z,69.59
2023-01-08T14:35:51.492Z,68.94
2023-01-08T14:38:18.346Z,68.85
2023-01-08T14:40:47.864Z,68.92
2023-01-08T14:43:15.939Z,68.78
2023-01-08T14:45:50.710Z,68.49
2023-01-08T14:48:41.665Z,68.60
2023-01-08T14:51:10.780Z,68.99
2023-01-08T14:53:41.744Z,68.97
2023-01-08T14:56:12.931Z,69.15
2023-01-08T14:58:41.244Z,69.07
2023-01-08T15:01:15.424Z,69.21
2023-01-08T15:03:46.359Z,69.19
2023-01-08T15:06:24.167Z,69.40
2023-01-08T15:08:50.944Z,69.37
2023-01-08T15:11:25.578Z,69.19
2023-01-08T15:13:53.358Z,69.42
2023-01-08T15:16:29.511Z,69.41
2023-01-08T15:19:07.588Z,69.61
2023-01-08T15:21:34.604Z,69.37
2023-01-08T15:24:01.660Z,69.16
2023-01-08T15:26:28.447Z,69.81
2023-01-08T15:28:58.872Z,69.74
2023-01-08T15:31:53.278Z,69.94
2023-01-08T15:34:20.427Z,70.24
2023-01-08T15:36:47.921Z,70.26
2023-01-08T15:39:14.690Z,70.20
2023-01-08T15:42:00.133Z,70.21
2023-01-08T15:44:27.051Z,70.13
2023-01-08T15:46:54.473Z,70.19
2023-01-08T15:49:21.672Z,70.18
2023-01-08T15:51:49.253Z,70.58
2023-01-08T15:54:16.730Z,70.29
2023-01-08T15:56:43.712Z,70.80
2023-01-08T15:59:11.823Z,70.68
2023-01-08T16:01:38.666Z,70.93
2023-01-08T16:04:05.584Z,71.05
2023-01-08T16:06:32.543Z,71.04
2023-01-08T16:09:00.558Z,71.36
2023-01-08T16:11:27.546Z,71.19
2023-01-08T16:13:54.768Z,71.34
2023-01-08T16:16:22.274Z,71.40
2023-01-08T16:18:49.410Z,71.73
2023-01-08T16:21:16.336Z,71.48
2023-01-08T16:23:43.112Z,71.66
2023-01-08T16:26:12.025Z,71.78
2023-01-08T16:28:39.314Z,71.55
2023-01-08T16:31:07.098Z,71.86
2023-01-08T16:33:34.215Z,71.82
2023-01-08T16:36:05.885Z,72.15
2023-01-08T16:38:33.595Z,72.36
2023-01-08T16:41:00.727Z,72.64
2023-01-08T16:43:28.605Z,73.03
2023-01-08T16:45:55.675Z,72.45
2023-01-08T16:48:23.115Z,73.30
2023-01-08T16:50:49.930Z,73.51
2023-01-08T16:53:17.919Z,73.54
2023-01-08T16:55:44.768Z,73.95
2023-01-08T16:58:11.959Z,74.00
2023-01-08T17:00:39.208Z,74.21
2023-01-08T17:03:06.521Z,74.71
2023-01-08T17:05:35.577Z,75.01
2023-01-08T17:08:02.374Z,75.44
2023-01-08T17:10:29.155Z,75.75
2023-01-08T17:12:55.987Z,76.04
2023-01-08T17:15:22.802Z,76.41
2023-01-08T17:17:49.543Z,76.34
2023-01-08T17:20:16.772Z,76.52
2023-01-08T17:22:43.519Z,77.41
2023-01-08T17:25:10.265Z,77.35
2023-01-08T17:27:37.317Z,77.59
2023-01-08T17:30:05.050Z,77.95
2023-01-08T17:32:32.321Z,78.08
2023-01-08T17:34:59.276Z,78.46
2023-01-08T17:37:26.044Z,78.75
2023-01-08T17:39:53.052Z,78.60
2023-01-08T17:42:27.064Z,78.61
2023-01-08T17:44:56.065Z,79.10
2023-01-08T17:47:24.107Z,79.07
2023-01-08T17:50:02.434Z,78.89
2023-01-08T17:52:29.393Z,79.11
2023-01-08T17:54:56.435Z,79.43
2023-01-08T17:57:23.389Z,79.31
2023-01-08T19:50:54.225Z,86.97
2023-01-08T19:53:30.519Z,87.05
2023-01-08T19:56:02.999Z,87.00
2023-01-08T19:58:33.688Z,86.72
2023-01-08T20:01:05.213Z,86.65
2023-01-08T20:03:33.774Z,86.06
2023-01-08T20:06:08.648Z,86.03
2023-01-08T20:08:38.839Z,85.72
2023-01-08T20:11:10.516Z,85.71
2023-01-08T20:13:42.645Z,85.26
2023-01-08T20:16:13.744Z,85.21
2023-01-08T20:18:41.774Z,84.71
2023-01-08T20:21:17.522Z,84.64
2023-01-08T20:23:45.035Z,84.51
2023-01-08T20:26:16.575Z,84.58
2023-01-08T20:28:47.203Z,84.07
2023-01-08T20:31:42.157Z,83.95
2023-01-08T20:34:14.995Z,83.88
2023-01-08T20:36:48.386Z,83.27
2023-01-08T20:39:19.285Z,83.04
2023-01-08T20:41:55.505Z,82.70
2023-01-08T20:44:30.453Z,81.67
2023-01-08T20:47:05.186Z,81.62
2023-01-08T20:49:33.246Z,81.15
2023-01-08T20:52:00.929Z,81.16
2023-01-08T20:54:31.790Z,80.15
2023-01-08T20:57:00.236Z,80.46
2023-01-08T20:59:27.282Z,79.89
2023-01-08T21:01:56.603Z,80.13
2023-01-08T21:04:23.656Z,79.78
2023-01-08T21:06:51.516Z,79.40
2023-01-08T21:09:19.139Z,79.11
2023-01-08T21:11:50.315Z,79.18
2023-01-08T21:14:19.107Z,78.79
2023-01-08T21:16:46.097Z,79.23
2023-01-08T21:19:14.818Z,78.83
2023-01-08T21:21:42.783Z,78.13
2023-01-08T21:24:11.435Z,77.49
2023-01-08T21:26:39.324Z,77.23
2023-01-08T21:29:06.926Z,76.85
2023-01-08T21:31:36.619Z,75.40
2023-01-08T21:34:04.371Z,75.54
2023-01-08T21:36:32.420Z,75.00
2023-01-08T21:39:00.872Z,74.75
2023-01-08T21:41:48.778Z,74.78
2023-01-08T21:44:41.491Z,74.68
2023-01-08T21:47:11.778Z,74.25
2023-01-08T21:49:41.131Z,74.58
2023-01-08T21:52:26.959Z,74.40
2023-01-08T21:54:55.839Z,74.67
2023-01-08T21:57:22.874Z,74.47
2023-01-08T21:59:51.137Z,74.51
2023-01-08T22:02:20.320Z,75.10
2023-01-08T22:04:47.595Z,74.92
2023-01-08T22:07:16.168Z,75.05
2023-01-08T22:09:45.187Z,74.98
2023-01-08T22:12:15.296Z,75.33
2023-01-08T22:14:42.196Z,75.43
2023-01-08T22:17:11.365Z,75.81
2023-01-08T22:19:39.420Z,75.60
2023-01-08T22:22:10.993Z,75.90
2023-01-08T22:24:40.412Z,75.89
2023-01-08T22:27:07.695Z,75.78
2023-01-08T22:29:38.062Z,75.93
2023-01-08T22:32:07.942Z,76.22
2023-01-08T22:34:36.532Z,76.55
2023-01-08T22:37:04.660Z,76.38
2023-01-08T22:39:31.316Z,76.50
2023-01-08T22:41:58.166Z,76.57
2023-01-08T22:44:26.073Z,76.75
2023-01-08T22:46:53.650Z,76.54
2023-01-08T22:49:21.647Z,76.76
2023-01-08T22:51:49.896Z,76.99
2023-01-08T22:54:18.982Z,77.14
2023-01-08T22:56:48.406Z,77.17
2023-01-08T22:59:18.890Z,77.16
2023-01-08T23:01:45.725Z,77.11
2023-01-08T23:04:14.680Z,77.00
2023-01-08T23:06:42.493Z,76.89
2023-01-08T23:09:09.663Z,76.86
2023-01-08T23:11:36.878Z,77.04
2023-01-08T23:14:03.812Z,76.82
2023-01-08T23:16:31.835Z,76.65
2023-01-08T23:18:59.613Z,76.59
2023-01-08T23:21:27.909Z,76.73
2023-01-08T23:23:55.118Z,76.68
2023-01-08T23:26:27.643Z,76.41
2023-01-08T23:28:55.444Z,76.30
2023-01-08T23:31:31.882Z,76.26
2023-01-08T23:34:02.626Z,76.24
2023-01-08T23:36:48.904Z,75.89
2023-01-08T23:39:32.261Z,76.09
2023-01-08T23:42:03.895Z,76.03
2023-01-08T23:48:03.514Z,75.97
2023-01-08T23:50:32.172Z,75.87
2023-01-08T23:52:59.300Z,75.96
2023-01-08T23:55:26.485Z,75.68
2023-01-08T23:57:53.802Z,75.52
